Stevensville, Maryland
Current Conditions -  °F | °C
As of 1:19 AM on Wednesday 22 Oct 2014 (Local Time) from KNAK Reporting Station
Moderate Rain Moderate Rain  
Wind Chill: 55°   Ceiling: 6000
Heat Index: 55°   Visibility: 3mi
Dew Point: 52°   Wind: 7mph
Humidity: 89%   Direction: 320°NW
Pressure: 29.87"   Gusts: NA
Location:  38.98°N, 76.31°W
Report Text: KNAK 220519Z AUTO 32006KT 3SM RA BR FEW031 BKN060 OVC070 13/11 A2987 RMK AO2 P0010 T01280111
Loading
Personal Weather Stations






























Interactive Weather Map New forecast layout! Learn more

10-Day Weather Forecast

Advertisements
Track Severe Weather on mobile